Post Oak, Texas
Current Conditions -  °F | °C
As of 11:15 PM on Wednesday 22 Oct 2014 (Local Time) from KGYB Reporting Station
Clear Clear  
Wind Chill: 68°   Ceiling: Unl
Heat Index: 68°   Visibility: 10mi
Dew Point: 58°   Wind: 5mph
Humidity: 71%   Direction: 100°E
Pressure: 30.13"   Gusts: NA
Location:  30.2279°N, 96.7713°W
Report Text: KGYB 230415Z AUTO 10004KT 10SM CLR 20/15 A3013 RMK AO2 T02000146
Loading
Personal Weather Stations






























Interactive Weather Map
Tropical Storm Tracking
New forecast layout! Learn more

10-Day Weather Forecast

Advertisements
Track Severe Weather on mobile